Terminal Aerodrome Forecast
Issued by NWS

Home | Current Version | Previous Version | Graphics & Text | Print | Product List | Glossary On
Versions: 1 2 3 4 5 6 7 8 9 10 11 12 13 14 15
573
FTUS43 KPAH 261720
TAFCGI
TAF
KCGI 261720Z 2618/2718 35009G14KT P6SM SCT250
     FM270000 00000KT P6SM SKC
     FM271400 26005KT P6SM SKC=

USA.gov is the U.S. government's official web portal to all federal, state and local government web resources and services.